createdAt,value
2022-08-02T00:00:35.067Z,16.60
2022-08-02T00:03:01.960Z,16.60
2022-08-02T00:05:29.004Z,16.50
2022-08-02T00:07:55.892Z,16.50
2022-08-02T00:10:22.837Z,16.50
2022-08-02T00:12:49.732Z,16.50
2022-08-02T00:15:16.682Z,16.50
2022-08-02T00:17:45.551Z,16.50
2022-08-02T00:20:14.459Z,16.40
2022-08-02T00:22:41.407Z,16.40
2022-08-02T00:25:08.640Z,16.40
2022-08-02T00:27:35.802Z,16.40
2022-08-02T00:30:02.742Z,16.30
2022-08-02T00:32:29.704Z,16.30
2022-08-02T00:34:56.573Z,16.30
2022-08-02T00:37:23.402Z,16.30
2022-08-02T00:39:50.292Z,16.30
2022-08-02T00:42:17.166Z,16.30
2022-08-02T00:44:44.084Z,16.20
2022-08-02T00:47:11.056Z,16.20
2022-08-02T00:49:41.887Z,16.20
2022-08-02T00:52:09.185Z,16.20
2022-08-02T00:54:36.334Z,16.20
2022-08-02T00:57:03.290Z,16.20
2022-08-02T00:59:30.140Z,16.20
2022-08-02T01:01:58.439Z,16.20
2022-08-02T01:04:30.107Z,16.20
2022-08-02T01:06:58.079Z,16.20
2022-08-02T01:09:25.257Z,16.20
2022-08-02T01:11:52.071Z,16.20
2022-08-02T01:14:19.841Z,16.20
2022-08-02T01:16:56.677Z,16.20
2022-08-02T01:19:56.553Z,16.20
2022-08-02T01:23:06.112Z,16.10
2022-08-02T01:26:18.233Z,16.10
2022-08-02T01:29:06.854Z,16.10
2022-08-02T01:31:55.659Z,16.00
2022-08-02T01:34:52.731Z,16.00
2022-08-02T01:37:32.196Z,16.10
2022-08-02T01:40:08.365Z,16.10
2022-08-02T01:42:38.489Z,16.00
2022-08-02T01:45:09.200Z,16.00
2022-08-02T01:47:40.277Z,16.00
2022-08-02T01:50:14.191Z,16.00
2022-08-02T01:52:53.536Z,16.00
2022-08-02T01:55:33.639Z,16.00
2022-08-02T01:58:06.003Z,15.90
2022-08-02T02:00:39.685Z,15.90
2022-08-02T02:03:13.720Z,15.80
2022-08-02T02:05:43.842Z,15.80
2022-08-02T02:08:12.211Z,15.80
2022-08-02T02:10:40.834Z,15.70
2022-08-02T02:13:17.039Z,15.70
2022-08-02T02:15:50.807Z,15.60
2022-08-02T02:18:25.989Z,15.60
2022-08-02T02:20:54.482Z,15.60
2022-08-02T02:23:25.075Z,15.60
2022-08-02T02:25:55.860Z,15.60
2022-08-02T02:28:30.216Z,15.50
2022-08-02T02:31:29.691Z,15.50
2022-08-02T02:34:17.829Z,15.50
2022-08-02T02:36:51.864Z,15.40
2022-08-02T02:39:23.655Z,15.40
2022-08-02T02:41:54.739Z,15.30
2022-08-02T02:44:23.458Z,15.30
2022-08-02T02:46:54.236Z,15.30
2022-08-02T02:49:23.802Z,15.30
2022-08-02T02:51:53.054Z,15.30
2022-08-02T02:54:32.210Z,15.30
2022-08-02T02:57:04.914Z,15.30
2022-08-02T02:59:34.488Z,15.20
2022-08-02T03:02:08.270Z,15.20
2022-08-02T03:04:57.042Z,15.20
2022-08-02T03:07:26.110Z,15.20
2022-08-02T03:09:54.520Z,15.20
2022-08-02T03:12:28.759Z,15.20
2022-08-02T03:15:05.718Z,15.10
2022-08-02T03:17:58.750Z,15.10
2022-08-02T03:20:25.685Z,15.10
2022-08-02T03:22:52.624Z,15.10
2022-08-02T03:25:19.683Z,15.00
2022-08-02T03:27:47.482Z,15.00
2022-08-02T03:30:15.345Z,15.00
2022-08-02T03:32:47.762Z,15.00
2022-08-02T03:35:23.409Z,15.00
2022-08-02T03:37:54.028Z,14.90
2022-08-02T03:40:22.120Z,14.90
2022-08-02T03:42:50.303Z,14.90
2022-08-02T03:45:18.322Z,14.90
2022-08-02T03:47:46.188Z,14.80
2022-08-02T03:50:14.274Z,14.80
2022-08-02T03:52:43.035Z,14.80
2022-08-02T03:55:12.584Z,14.80
2022-08-02T03:57:42.004Z,14.80
2022-08-02T04:00:12.925Z,14.70
2022-08-02T04:02:39.944Z,14.70
2022-08-02T04:05:07.185Z,14.70
2022-08-02T04:08:33.893Z,14.70
2022-08-02T04:10:20.965Z,14.70
2022-08-02T04:12:48.162Z,14.70
2022-08-02T04:15:15.813Z,14.70
2022-08-02T04:17:51.099Z,14.70
2022-08-02T04:20:31.380Z,14.80
2022-08-02T04:23:09.855Z,14.80
2022-08-02T04:25:40.136Z,14.80
2022-08-02T04:28:16.658Z,14.80
2022-08-02T04:30:47.720Z,14.80
2022-08-02T04:33:15.371Z,14.80
2022-08-02T04:35:42.550Z,14.80
2022-08-02T04:38:28.649Z,14.80
2022-08-02T04:40:57.081Z,14.80
2022-08-02T04:43:24.100Z,14.80
2022-08-02T04:45:54.835Z,14.90
2022-08-02T04:48:22.702Z,14.90
2022-08-02T04:50:50.741Z,15.00
2022-08-02T04:53:17.994Z,15.00
2022-08-02T04:55:45.078Z,15.00
2022-08-02T04:58:38.394Z,15.10
2022-08-02T05:00:59.451Z,15.10
2022-08-02T05:03:26.459Z,15.20
2022-08-02T05:05:53.399Z,15.20
2022-08-02T05:08:20.268Z,15.30
2022-08-02T05:10:47.729Z,15.30
2022-08-02T05:13:14.796Z,15.40
2022-08-02T05:15:41.672Z,15.40
2022-08-02T05:18:08.695Z,15.50
2022-08-02T05:20:35.572Z,15.50
2022-08-02T05:23:03.519Z,15.60
2022-08-02T05:25:30.479Z,15.70
2022-08-02T05:27:57.459Z,15.90
2022-08-02T05:30:24.563Z,16.00
2022-08-02T05:32:54.272Z,16.20
2022-08-02T05:35:23.557Z,16.30
2022-08-02T05:37:51.765Z,16.30
2022-08-02T05:40:25.454Z,16.50
2022-08-02T05:42:54.201Z,16.60
2022-08-02T05:45:21.810Z,16.70
2022-08-02T05:47:48.831Z,16.80
2022-08-02T05:50:15.861Z,16.90
2022-08-02T05:52:48.377Z,17.10
2022-08-02T05:55:28.777Z,17.20
2022-08-02T05:58:07.875Z,17.40
2022-08-02T06:00:37.657Z,17.50
2022-08-02T06:03:31.176Z,17.70
2022-08-02T06:06:12.448Z,17.90
2022-08-02T06:08:48.124Z,18.00
2022-08-02T06:11:22.847Z,18.10
2022-08-02T06:13:51.724Z,18.20
2022-08-02T06:16:32.202Z,18.30
2022-08-02T06:19:01.591Z,18.50
2022-08-02T06:22:35.577Z,18.60
2022-08-02T06:24:19.933Z,18.70
2022-08-02T06:26:52.418Z,18.80
2022-08-02T06:29:21.412Z,18.90
2022-08-02T06:31:53.276Z,19.00
2022-08-02T06:34:20.156Z,19.10
2022-08-02T06:37:02.359Z,19.20
2022-08-02T06:39:48.101Z,19.30
2022-08-02T06:42:26.916Z,19.50
2022-08-02T06:44:57.919Z,19.50
2022-08-02T06:47:26.530Z,19.70
2022-08-02T06:49:55.220Z,19.80
2022-08-02T06:52:29.417Z,19.90
2022-08-02T06:54:58.749Z,20.00
2022-08-02T06:57:26.086Z,20.10
2022-08-02T06:59:53.253Z,20.20
2022-08-02T07:02:20.634Z,20.40
2022-08-02T07:04:47.640Z,20.50
2022-08-02T07:07:14.719Z,20.60
2022-08-02T07:09:56.984Z,20.80
2022-08-02T07:12:31.462Z,20.90
2022-08-02T07:15:06.654Z,20.90
2022-08-02T07:17:34.548Z,21.00
2022-08-02T07:20:01.651Z,21.00
2022-08-02T07:22:29.111Z,21.00
2022-08-02T07:24:59.145Z,21.10
2022-08-02T07:27:27.772Z,21.30
2022-08-02T07:29:57.830Z,21.40
2022-08-02T07:32:28.346Z,21.50
2022-08-02T07:34:56.360Z,21.50
2022-08-02T07:37:52.686Z,21.60
2022-08-02T07:40:20.543Z,21.70
2022-08-02T07:42:57.764Z,21.90
2022-08-02T07:45:27.572Z,22.00
2022-08-02T07:47:56.726Z,22.10
2022-08-02T07:50:24.154Z,22.30
2022-08-02T07:52:57.233Z,22.50
2022-08-02T07:55:35.168Z,22.60
2022-08-02T07:58:11.089Z,22.80
2022-08-02T08:00:40.812Z,23.00
2022-08-02T08:03:07.695Z,23.10
2022-08-02T08:05:34.885Z,23.30
2022-08-02T08:08:01.737Z,23.40
2022-08-02T08:10:28.631Z,23.50
2022-08-02T08:12:55.426Z,23.60
2022-08-02T08:15:22.433Z,23.90
2022-08-02T08:17:49.586Z,24.00
2022-08-02T08:20:16.464Z,24.20
2022-08-02T08:22:43.904Z,24.40
2022-08-02T08:25:16.646Z,24.70
2022-08-02T08:27:52.213Z,24.80
2022-08-02T08:30:22.734Z,25.00
2022-08-02T08:32:50.105Z,25.10
2022-08-02T08:35:17.580Z,25.20
2022-08-02T08:37:44.823Z,25.20
2022-08-02T08:40:12.688Z,25.20
2022-08-02T08:42:40.118Z,25.30
2022-08-02T08:45:09.577Z,25.50
2022-08-02T08:47:42.631Z,25.70
2022-08-02T08:50:25.404Z,25.90
2022-08-02T08:53:04.333Z,26.00
2022-08-02T08:55:33.632Z,26.10
2022-08-02T08:58:03.154Z,26.10
2022-08-02T09:00:32.697Z,26.20
2022-08-02T09:03:02.893Z,26.40
2022-08-02T09:05:29.790Z,26.50
2022-08-02T09:07:56.905Z,26.60
2022-08-02T09:10:56.126Z,26.80
2022-08-02T09:13:38.162Z,26.70
2022-08-02T09:16:14.666Z,26.80
2022-08-02T09:18:46.157Z,26.80
2022-08-02T09:21:16.260Z,27.10
2022-08-02T09:23:47.351Z,27.20
2022-08-02T09:26:18.605Z,27.50
2022-08-02T09:28:50.185Z,27.60
2022-08-02T09:31:24.469Z,27.60
2022-08-02T09:33:57.604Z,27.70
2022-08-02T09:36:26.736Z,28.00
2022-08-02T09:39:05.025Z,28.10
2022-08-02T09:41:36.418Z,27.90
2022-08-02T09:44:06.953Z,28.00
2022-08-02T09:46:44.282Z,28.10
2022-08-02T09:49:13.818Z,28.10
2022-08-02T09:51:54.255Z,28.00
2022-08-02T09:54:28.916Z,28.00
2022-08-02T09:56:58.497Z,28.00
2022-08-02T09:59:28.001Z,28.00
2022-08-02T10:01:58.989Z,28.20
2022-08-02T10:04:34.479Z,28.30
2022-08-02T10:07:19.566Z,28.20
2022-08-02T10:09:50.037Z,28.10
2022-08-02T10:12:18.439Z,28.00
2022-08-02T10:14:46.242Z,27.90
2022-08-02T10:17:15.296Z,27.80
2022-08-02T10:20:03.077Z,27.90
2022-08-02T10:22:30.278Z,27.90
2022-08-02T10:24:57.470Z,28.10
2022-08-02T10:27:25.969Z,28.50
2022-08-02T10:29:57.813Z,28.90
2022-08-02T10:32:31.481Z,29.00
2022-08-02T10:35:19.074Z,29.20
2022-08-02T10:38:01.090Z,29.40
2022-08-02T10:40:44.446Z,29.40
2022-08-02T10:43:12.336Z,29.10
2022-08-02T10:45:39.642Z,28.80
2022-08-02T10:48:14.594Z,28.80
2022-08-02T10:50:47.990Z,29.10
2022-08-02T10:53:30.376Z,29.20
2022-08-02T10:56:09.228Z,29.50
2022-08-02T10:58:36.379Z,29.90
2022-08-02T11:01:38.301Z,30.30
2022-08-02T11:04:10.585Z,30.50
2022-08-02T11:07:18.115Z,30.60
2022-08-02T11:09:50.289Z,30.80
2022-08-02T11:12:22.080Z,30.90
2022-08-02T11:15:07.390Z,30.90
2022-08-02T11:17:59.008Z,30.80
2022-08-02T11:20:29.045Z,30.70
2022-08-02T11:23:45.174Z,30.20
2022-08-02T11:26:45.541Z,30.20
2022-08-02T11:29:16.006Z,30.20
2022-08-02T11:31:45.630Z,30.50
2022-08-02T11:34:28.475Z,30.60
2022-08-02T11:37:01.081Z,30.50
2022-08-02T11:39:28.200Z,30.70
2022-08-02T11:41:58.954Z,30.80
2022-08-02T11:44:39.010Z,30.90
2022-08-02T11:47:07.036Z,31.30
2022-08-02T11:49:34.250Z,31.40
2022-08-02T11:52:06.751Z,31.20
2022-08-02T11:54:40.421Z,30.80
2022-08-02T11:57:22.277Z,30.50
2022-08-02T11:59:52.874Z,30.30
2022-08-02T12:02:28.941Z,30.30
2022-08-02T12:05:09.199Z,30.30
2022-08-02T12:07:45.778Z,30.30
2022-08-02T12:10:22.205Z,30.50
2022-08-02T12:12:58.795Z,30.70
2022-08-02T12:15:41.859Z,30.60
2022-08-02T12:18:37.148Z,30.80
2022-08-02T12:21:20.348Z,30.60
2022-08-02T12:23:59.597Z,30.70
2022-08-02T12:26:29.895Z,30.90
2022-08-02T12:29:01.308Z,31.00
2022-08-02T12:31:57.366Z,31.10
2022-08-02T12:34:31.594Z,31.10
2022-08-02T12:37:10.755Z,31.10
2022-08-02T12:39:42.260Z,31.30
2022-08-02T12:42:14.157Z,31.30
2022-08-02T12:45:00.570Z,31.40
2022-08-02T12:47:35.497Z,31.30
2022-08-02T12:50:29.797Z,31.10
2022-08-02T12:53:09.829Z,31.10
2022-08-02T12:56:00.886Z,31.00
2022-08-02T12:58:31.534Z,31.00
2022-08-02T13:01:01.199Z,31.10
2022-08-02T13:04:11.577Z,30.90
2022-08-02T13:06:43.102Z,30.70
2022-08-02T13:09:15.495Z,30.70
2022-08-02T13:11:43.841Z,30.90
2022-08-02T13:14:12.952Z,31.00
2022-08-02T13:16:41.866Z,31.10
2022-08-02T13:19:09.564Z,30.90
2022-08-02T13:21:41.502Z,30.90
2022-08-02T13:24:39.772Z,31.00
2022-08-02T13:27:10.902Z,31.00
2022-08-02T13:30:05.476Z,30.90
2022-08-02T13:32:34.565Z,31.00
2022-08-02T13:35:01.609Z,31.20
2022-08-02T13:37:28.518Z,31.60
2022-08-02T13:40:20.771Z,31.80
2022-08-02T13:42:43.957Z,32.10
2022-08-02T13:45:12.026Z,32.20
2022-08-02T13:47:57.361Z,32.00
2022-08-02T13:50:30.613Z,32.00
2022-08-02T13:52:57.700Z,32.10
2022-08-02T13:55:25.010Z,32.30
2022-08-02T13:57:54.299Z,32.30
2022-08-02T14:00:34.977Z,32.40
2022-08-02T14:03:12.256Z,32.60
2022-08-02T14:05:48.595Z,32.80
2022-08-02T14:08:23.845Z,32.70
2022-08-02T14:10:56.634Z,32.40
2022-08-02T14:13:36.045Z,32.00
2022-08-02T14:16:21.779Z,32.00
2022-08-02T14:19:15.645Z,31.90
2022-08-02T14:21:48.618Z,31.90
2022-08-02T14:24:27.181Z,31.90
2022-08-02T14:26:56.555Z,31.80
2022-08-02T14:29:23.490Z,31.80
2022-08-02T14:31:50.384Z,31.80
2022-08-02T14:34:17.235Z,31.90
2022-08-02T14:36:44.195Z,31.80
2022-08-02T14:39:11.923Z,31.90
2022-08-02T14:41:59.821Z,31.90
2022-08-02T14:44:26.161Z,32.10
2022-08-02T14:46:53.163Z,32.10
2022-08-02T14:49:25.634Z,32.20
2022-08-02T14:51:57.529Z,32.40
2022-08-02T14:54:30.561Z,32.60
2022-08-02T14:57:00.691Z,32.80
2022-08-02T14:59:29.709Z,32.70
2022-08-02T15:01:57.381Z,32.60
2022-08-02T15:04:24.779Z,32.80
2022-08-02T15:06:51.976Z,32.80
2022-08-02T15:09:19.875Z,32.60
2022-08-02T15:11:49.131Z,32.50
2022-08-02T15:14:20.294Z,32.60
2022-08-02T15:16:57.052Z,32.60
2022-08-02T15:19:44.941Z,32.50
2022-08-02T15:22:16.625Z,32.40
2022-08-02T15:24:47.338Z,32.40
2022-08-02T15:27:15.292Z,32.60
2022-08-02T15:29:46.887Z,32.60
2022-08-02T15:32:19.951Z,32.60
2022-08-02T15:34:48.146Z,32.70
2022-08-02T15:37:15.209Z,32.60
2022-08-02T15:39:42.067Z,32.80
2022-08-02T15:42:09.076Z,32.60
2022-08-02T15:44:36.094Z,32.50
2022-08-02T15:47:06.711Z,32.50
2022-08-02T15:49:35.325Z,32.50
2022-08-02T15:52:05.166Z,32.40
2022-08-02T15:54:33.050Z,32.40
2022-08-02T15:57:00.411Z,32.30
2022-08-02T15:59:27.566Z,32.10
2022-08-02T16:01:54.468Z,31.90
2022-08-02T16:04:21.587Z,31.90
2022-08-02T16:06:48.485Z,31.90
2022-08-02T16:09:15.410Z,31.80
2022-08-02T16:11:42.333Z,31.90
2022-08-02T16:14:09.544Z,32.00
2022-08-02T16:16:37.704Z,32.10
2022-08-02T16:19:46.213Z,32.10
2022-08-02T16:21:54.803Z,32.00
2022-08-02T16:24:22.454Z,31.90
2022-08-02T16:26:50.009Z,31.90
2022-08-02T16:29:19.476Z,31.80
2022-08-02T16:31:48.159Z,31.80
2022-08-02T16:34:16.795Z,31.60
2022-08-02T16:36:44.702Z,31.40
2022-08-02T16:39:12.417Z,31.20
2022-08-02T16:41:51.124Z,31.10
2022-08-02T16:44:30.115Z,31.10
2022-08-02T16:47:01.953Z,31.10
2022-08-02T16:50:05.768Z,31.10
2022-08-02T16:52:23.303Z,31.00
2022-08-02T16:55:01.511Z,30.90
2022-08-02T16:57:43.148Z,30.80
2022-08-02T17:00:15.445Z,30.70
2022-08-02T17:02:47.009Z,30.60
2022-08-02T17:05:37.867Z,30.60
2022-08-02T17:08:24.281Z,30.50
2022-08-02T17:11:03.411Z,30.60
2022-08-02T17:13:34.431Z,30.40
2022-08-02T17:16:20.848Z,30.40
2022-08-02T17:18:54.360Z,30.40
2022-08-02T17:21:23.667Z,30.40
2022-08-02T17:24:06.283Z,30.30
2022-08-02T17:26:39.466Z,30.20
2022-08-02T17:32:04.769Z,30.10
2022-08-02T17:34:36.771Z,30.00
2022-08-02T17:37:05.407Z,29.90
2022-08-02T17:39:43.947Z,29.90
2022-08-02T17:42:26.573Z,30.00
2022-08-02T17:45:00.850Z,29.90
2022-08-02T17:47:30.872Z,29.90
2022-08-02T17:50:18.498Z,29.80
2022-08-02T17:52:52.539Z,29.80
2022-08-02T17:55:20.786Z,29.70
2022-08-02T17:57:58.238Z,29.70
2022-08-02T18:00:35.584Z,29.70
2022-08-02T18:03:06.276Z,29.60
2022-08-02T18:05:38.915Z,29.60
2022-08-02T18:08:07.615Z,29.50
2022-08-02T18:10:35.023Z,29.40
2022-08-02T18:13:03.247Z,29.30
2022-08-02T18:15:32.511Z,29.20
2022-08-02T18:18:00.955Z,29.10
2022-08-02T18:20:28.009Z,29.10
2022-08-02T18:22:58.474Z,29.00
2022-08-02T18:25:37.240Z,29.00
2022-08-02T18:28:11.654Z,28.90
2022-08-02T18:30:39.090Z,28.90
2022-08-02T18:33:54.414Z,28.80
2022-08-02T18:35:55.145Z,28.80
2022-08-02T18:38:23.266Z,28.70
2022-08-02T18:43:43.521Z,28.70
2022-08-02T18:46:15.921Z,28.60
2022-08-02T18:48:46.229Z,28.50
2022-08-02T18:51:14.723Z,28.50
2022-08-02T18:53:42.840Z,28.40
2022-08-02T18:56:19.925Z,28.40
2022-08-02T18:58:54.467Z,28.30
2022-08-02T19:01:32.019Z,28.20
2022-08-02T19:04:01.576Z,28.20
2022-08-02T19:06:29.766Z,28.20
2022-08-02T19:09:11.232Z,28.10
2022-08-02T19:11:50.397Z,28.00
2022-08-02T19:14:24.195Z,27.90
2022-08-02T19:16:59.283Z,27.90
2022-08-02T19:19:28.649Z,27.80
2022-08-02T19:22:16.258Z,27.80
2022-08-02T19:24:46.209Z,27.70
2022-08-02T19:30:04.249Z,27.50
2022-08-02T19:32:41.732Z,27.40
2022-08-02T19:35:29.867Z,27.40
2022-08-02T19:38:07.542Z,27.30
2022-08-02T19:40:35.023Z,27.20
2022-08-02T19:44:26.241Z,27.10
2022-08-02T19:45:51.429Z,27.00
2022-08-02T19:48:23.972Z,26.90
2022-08-02T19:50:55.925Z,26.80
2022-08-02T19:53:29.079Z,26.70
2022-08-02T19:56:11.755Z,26.60
2022-08-02T19:58:39.674Z,26.50
2022-08-02T20:01:14.974Z,26.40
2022-08-02T20:03:51.900Z,26.20
2022-08-02T20:06:29.737Z,26.10
2022-08-02T20:09:00.924Z,26.10
2022-08-02T20:11:34.949Z,26.00
2022-08-02T20:14:07.225Z,25.90
2022-08-02T20:16:35.792Z,25.80
2022-08-02T20:19:07.717Z,25.70
2022-08-02T20:21:37.171Z,25.60
2022-08-02T20:24:09.171Z,25.60
2022-08-02T20:26:47.095Z,25.50
2022-08-02T20:32:04.396Z,25.40
2022-08-02T20:34:31.476Z,25.30
2022-08-02T20:37:00.639Z,25.20
2022-08-02T20:39:48.060Z,25.10
2022-08-02T20:42:23.324Z,25.00
2022-08-02T20:44:54.893Z,25.00
2022-08-02T20:47:27.608Z,25.00
2022-08-02T20:50:14.723Z,24.90
2022-08-02T20:52:42.856Z,24.90
2022-08-02T20:55:10.022Z,24.90
2022-08-02T20:57:59.962Z,24.90
2022-08-02T21:00:32.141Z,24.80
2022-08-02T21:03:02.782Z,24.80
2022-08-02T21:05:53.923Z,24.70
2022-08-02T21:08:21.310Z,24.70
2022-08-02T21:10:51.895Z,24.60
2022-08-02T21:13:22.925Z,24.60
2022-08-02T21:15:51.903Z,24.50
2022-08-02T21:18:26.554Z,24.40
2022-08-02T21:21:04.332Z,24.40
2022-08-02T21:23:36.366Z,24.30
2022-08-02T21:26:06.462Z,24.30
2022-08-02T21:28:43.441Z,24.30
2022-08-02T21:31:16.168Z,24.20
2022-08-02T21:33:57.848Z,24.20
2022-08-02T21:36:33.169Z,24.10
2022-08-02T21:39:04.351Z,24.10
2022-08-02T21:41:38.899Z,24.00
2022-08-02T21:44:11.554Z,24.00
2022-08-02T21:46:38.446Z,24.00
2022-08-02T21:49:05.931Z,24.00
2022-08-02T21:51:34.215Z,24.00
2022-08-02T21:54:17.390Z,24.00
2022-08-02T21:56:53.373Z,23.90
2022-08-02T22:02:10.314Z,23.80
2022-08-02T22:04:37.779Z,23.80
2022-08-02T22:07:05.440Z,23.70
2022-08-02T22:09:43.017Z,23.60
2022-08-02T22:12:18.407Z,23.50
2022-08-02T22:14:55.143Z,23.40
2022-08-02T22:17:50.485Z,23.40
2022-08-02T22:20:19.995Z,23.30
2022-08-02T22:22:51.351Z,23.30
2022-08-02T22:25:26.722Z,23.20
2022-08-02T22:28:37.217Z,23.20
2022-08-02T22:31:04.491Z,23.10
2022-08-02T22:34:01.181Z,23.00
2022-08-02T22:36:35.716Z,22.90
2022-08-02T22:39:19.141Z,22.90
2022-08-02T22:42:05.590Z,22.80
2022-08-02T22:44:35.679Z,22.70
2022-08-02T22:47:07.237Z,22.70
2022-08-02T22:49:51.879Z,22.60
2022-08-02T22:52:23.233Z,22.60
2022-08-02T22:54:51.088Z,22.50
2022-08-02T22:57:29.963Z,22.50
2022-08-02T22:58:45.114Z,28.70
2022-08-02T22:58:48.003Z,27.60
2022-08-02T22:58:50.426Z,30.10
2022-08-02T22:59:03.936Z,23.80
2022-08-02T22:59:08.351Z,25.40
2022-08-02T22:59:59.393Z,22.50
2022-08-02T23:02:26.816Z,22.40
2022-08-02T23:04:53.697Z,22.40
2022-08-02T23:07:20.611Z,22.40
2022-08-02T23:09:47.539Z,22.40
2022-08-02T23:12:18.987Z,22.30
2022-08-02T23:14:47.524Z,22.30
2022-08-02T23:17:33.336Z,22.30
2022-08-02T23:20:00.307Z,22.30
2022-08-02T23:22:29.950Z,22.20
2022-08-02T23:25:00.810Z,22.20
2022-08-02T23:27:28.614Z,22.10
2022-08-02T23:29:55.693Z,22.10
2022-08-02T23:32:25.461Z,22.10
2022-08-02T23:34:54.583Z,22.00
2022-08-02T23:37:22.626Z,22.00
2022-08-02T23:39:49.934Z,21.90
2022-08-02T23:42:17.058Z,21.90
2022-08-02T23:44:44.080Z,21.90
2022-08-02T23:47:11.103Z,21.80
2022-08-02T23:49:38.366Z,21.80
2022-08-02T23:52:05.515Z,21.80
2022-08-02T23:54:32.380Z,21.70
2022-08-02T23:56:59.316Z,21.60
2022-08-02T23:59:26.281Z,21.60
